createdAt,value
2022-10-31T00:04:51.344Z,26.30
2022-10-31T00:09:55.108Z,23.17
2022-10-31T00:15:00.263Z,25.02
2022-10-31T00:20:04.146Z,27.40
2022-10-31T00:25:08.253Z,26.45
2022-10-31T00:30:14.286Z,24.88
2022-10-31T00:35:18.992Z,23.80
2022-10-31T00:40:22.845Z,32.65
2022-10-31T00:45:28.065Z,23.98
2022-10-31T00:50:31.875Z,21.50
2022-10-31T00:55:36.825Z,18.88
2022-10-31T01:00:42.127Z,23.77
2022-10-31T01:05:45.985Z,22.67
2022-10-31T01:11:00.762Z,22.65
2022-10-31T01:16:07.761Z,26.88
2022-10-31T01:21:14.221Z,25.45
2022-10-31T01:26:19.454Z,21.73
2022-10-31T01:31:26.390Z,20.47
2022-10-31T01:36:31.783Z,25.38
2022-10-31T01:41:37.289Z,26.13
2022-10-31T01:46:45.973Z,21.88
2022-10-31T01:51:52.441Z,29.58
2022-10-31T01:56:58.011Z,30.92
2022-10-31T02:02:03.381Z,23.90
2022-10-31T02:07:10.518Z,23.13
2022-10-31T02:12:14.652Z,24.88
2022-10-31T02:17:19.890Z,21.75
2022-10-31T02:22:29.246Z,23.60
2022-10-31T02:27:53.673Z,20.08
2022-10-31T02:33:06.257Z,21.55
2022-10-31T02:38:19.830Z,27.95
2022-10-31T02:43:28.894Z,23.38
2022-10-31T02:48:36.573Z,21.08
2022-10-31T02:53:40.801Z,24.08
2022-10-31T02:58:49.908Z,21.98
2022-10-31T03:04:05.396Z,20.63
2022-10-31T03:09:13.005Z,22.92
2022-10-31T03:14:22.178Z,22.40
2022-10-31T03:19:36.401Z,21.85
2022-10-31T03:24:41.919Z,22.40
2022-10-31T03:29:46.861Z,18.75
2022-10-31T03:39:57.750Z,17.08
2022-10-31T03:45:04.908Z,18.80
2022-10-31T03:50:11.598Z,21.23
2022-10-31T03:55:19.923Z,20.23
2022-10-31T04:00:24.041Z,18.20
2022-10-31T04:05:32.935Z,21.27
2022-10-31T04:10:39.739Z,23.15
2022-10-31T04:15:44.642Z,21.92
2022-10-31T04:20:51.069Z,21.35
2022-10-31T04:25:54.962Z,18.42
2022-10-31T04:30:59.517Z,20.95
2022-10-31T04:36:09.070Z,23.13
2022-10-31T04:46:29.078Z,21.27
2022-10-31T04:51:36.173Z,24.33
2022-10-31T04:56:40.044Z,21.90
2022-10-31T05:01:51.501Z,21.15
2022-10-31T05:07:02.640Z,28.50
2022-10-31T05:12:06.601Z,47.03
2022-10-31T05:17:46.083Z,35.15
2022-10-31T05:23:09.710Z,28.67
2022-10-31T05:28:13.564Z,22.90
2022-10-31T05:33:17.403Z,27.30
2022-10-31T05:38:41.237Z,30.80
2022-10-31T05:43:59.147Z,25.35
2022-10-31T05:49:06.189Z,24.00
2022-10-31T05:54:29.985Z,29.90
2022-10-31T05:59:33.922Z,26.90
2022-10-31T06:04:38.926Z,19.70
2022-10-31T06:09:44.211Z,22.27
2022-10-31T06:14:48.631Z,27.77
2022-10-31T06:19:52.805Z,23.13
2022-10-31T06:25:00.666Z,21.58
2022-10-31T06:30:08.493Z,19.90
2022-10-31T06:35:14.161Z,24.98
2022-10-31T06:40:20.689Z,18.33
2022-10-31T06:45:42.754Z,26.77
2022-10-31T06:50:57.104Z,16.42
2022-10-31T06:56:05.102Z,21.23
2022-10-31T07:01:14.389Z,18.88
2022-10-31T07:06:18.518Z,13.13
2022-10-31T07:11:23.833Z,18.27
2022-10-31T07:16:27.731Z,10.35
2022-10-31T07:21:31.895Z,9.68
2022-10-31T07:26:37.184Z,15.52
2022-10-31T07:31:41.288Z,11.03
2022-10-31T07:36:53.144Z,14.95
2022-10-31T07:42:00.882Z,16.70
2022-10-31T07:47:05.574Z,19.27
2022-10-31T07:52:27.946Z,18.35
2022-10-31T07:57:59.871Z,23.02
2022-10-31T08:03:06.849Z,16.93
2022-10-31T08:08:33.388Z,14.60
2022-10-31T08:13:41.305Z,25.83
2022-10-31T08:18:46.651Z,18.60
2022-10-31T08:29:00.541Z,19.13
2022-10-31T08:34:09.178Z,12.65
2022-10-31T08:39:38.961Z,18.98
2022-10-31T08:44:44.318Z,16.65
2022-10-31T08:49:48.238Z,9.07
2022-10-31T08:54:52.328Z,18.80
2022-10-31T09:00:36.865Z,14.82
2022-10-31T09:05:50.189Z,17.77
2022-10-31T09:10:54.483Z,18.65
2022-10-31T09:16:19.595Z,15.60
2022-10-31T09:21:23.418Z,19.67
2022-10-31T09:26:27.598Z,18.80
2022-10-31T09:31:36.982Z,20.63
2022-10-31T09:37:05.384Z,15.80
2022-10-31T09:42:33.731Z,13.95
2022-10-31T09:47:49.966Z,16.67
2022-10-31T09:53:13.298Z,18.73
2022-10-31T09:58:22.230Z,23.60
2022-10-31T10:03:34.249Z,22.50
2022-10-31T10:08:47.373Z,18.15
2022-10-31T10:14:26.469Z,19.23
2022-10-31T10:19:47.065Z,17.23
2022-10-31T10:25:04.453Z,15.93
2022-10-31T10:30:16.438Z,14.40
2022-10-31T10:35:25.918Z,13.85
2022-10-31T10:40:30.158Z,12.57
2022-10-31T10:45:51.349Z,17.57
2022-10-31T10:50:56.555Z,19.23
2022-10-31T10:56:11.631Z,16.83
2022-10-31T11:06:27.510Z,17.83
2022-10-31T11:11:32.898Z,16.30
2022-10-31T11:16:41.243Z,20.85
2022-10-31T11:21:54.367Z,13.65
2022-10-31T11:27:14.409Z,16.75
2022-10-31T11:32:21.795Z,16.85
2022-10-31T11:37:28.311Z,13.10
2022-10-31T11:42:38.283Z,19.65
2022-10-31T11:47:44.410Z,12.32
2022-10-31T11:52:50.024Z,14.57
2022-10-31T11:57:54.710Z,13.57
2022-10-31T12:03:14.693Z,13.27
2022-10-31T12:08:19.892Z,14.50
2022-10-31T12:13:34.710Z,10.73
2022-10-31T12:18:48.655Z,16.67
2022-10-31T12:24:02.242Z,15.57
2022-10-31T12:29:19.775Z,14.48
2022-10-31T12:34:42.680Z,15.32
2022-10-31T12:40:04.233Z,17.38
2022-10-31T12:45:23.640Z,14.70
2022-10-31T12:50:36.168Z,16.92
2022-10-31T12:55:46.844Z,15.77
2022-10-31T13:00:54.128Z,17.95
2022-10-31T13:06:01.582Z,13.10
2022-10-31T13:11:10.418Z,17.48
2022-10-31T13:16:16.850Z,11.30
2022-10-31T13:21:23.551Z,14.57
2022-10-31T13:26:39.347Z,12.40
2022-10-31T13:31:43.806Z,19.05
2022-10-31T13:36:51.769Z,20.98
2022-10-31T13:42:02.156Z,13.88
2022-10-31T13:47:06.063Z,15.80
2022-10-31T13:52:25.946Z,16.17
2022-10-31T13:57:34.976Z,18.15
2022-10-31T14:02:39.180Z,18.33
2022-10-31T14:07:45.472Z,18.80
2022-10-31T14:12:51.482Z,16.05
2022-10-31T14:17:56.880Z,14.45
2022-10-31T14:23:00.841Z,18.67
2022-10-31T14:28:21.106Z,20.85
2022-10-31T14:33:26.594Z,14.63
2022-10-31T14:38:38.914Z,11.65
2022-10-31T14:44:19.331Z,14.20
2022-10-31T14:49:33.819Z,22.33
2022-10-31T14:54:39.875Z,19.92
2022-10-31T14:59:50.844Z,15.82
2022-10-31T15:04:56.933Z,15.52
2022-10-31T15:10:01.909Z,19.20
2022-10-31T15:15:17.872Z,15.87
2022-10-31T15:25:27.539Z,22.85
2022-10-31T15:30:32.712Z,21.65
2022-10-31T15:35:36.573Z,20.80
2022-10-31T15:40:40.623Z,21.55
2022-10-31T15:45:45.866Z,22.65
2022-10-31T15:50:51.726Z,26.08
2022-10-31T15:55:59.858Z,21.23
2022-10-31T16:01:06.941Z,17.42
2022-10-31T16:06:22.429Z,22.13
2022-10-31T16:11:30.074Z,25.20
2022-10-31T16:16:36.818Z,22.73
2022-10-31T16:21:40.965Z,23.65
2022-10-31T16:26:50.031Z,35.28
2022-10-31T16:31:55.216Z,27.85
2022-10-31T16:36:58.990Z,23.50
2022-10-31T16:42:02.857Z,30.25
2022-10-31T16:47:15.829Z,44.45
2022-10-31T16:52:19.945Z,35.80
2022-10-31T16:57:28.982Z,46.10
2022-10-31T17:02:34.248Z,26.95
2022-10-31T17:07:38.093Z,41.10
2022-10-31T17:12:44.500Z,26.25
2022-10-31T17:17:49.967Z,27.42
2022-10-31T17:22:53.743Z,44.60
2022-10-31T17:27:57.552Z,32.72
2022-10-31T17:33:03.034Z,30.95
2022-10-31T17:38:07.038Z,27.00
2022-10-31T17:43:11.756Z,27.58
2022-10-31T17:48:16.916Z,25.75
2022-10-31T17:53:20.746Z,33.53
2022-10-31T17:58:24.522Z,35.38
2022-10-31T18:03:29.786Z,36.08
2022-10-31T18:08:35.014Z,42.03
2022-10-31T18:13:39.482Z,39.97
2022-10-31T18:18:44.660Z,35.00
2022-10-31T18:23:48.988Z,35.77
2022-10-31T18:28:53.105Z,39.33
2022-10-31T18:33:58.576Z,42.38
2022-10-31T18:39:03.278Z,51.85
2022-10-31T18:44:07.597Z,41.42
2022-10-31T18:49:12.777Z,70.70
2022-10-31T18:54:16.552Z,62.57
2022-10-31T18:59:20.350Z,58.30
2022-10-31T19:04:25.636Z,73.93
2022-10-31T19:09:31.013Z,68.70
2022-10-31T19:14:34.932Z,72.07
2022-10-31T19:19:40.273Z,100.55
2022-10-31T19:24:44.221Z,107.10
2022-10-31T19:29:48.081Z,107.25
2022-10-31T19:34:54.493Z,129.20
2022-10-31T19:39:58.265Z,135.02
2022-10-31T19:45:02.212Z,131.15
2022-10-31T19:50:08.593Z,126.78
2022-10-31T19:55:15.271Z,117.13
2022-10-31T20:00:19.370Z,109.53
2022-10-31T20:05:24.649Z,107.65
2022-10-31T20:10:28.457Z,106.93
2022-10-31T20:15:32.306Z,117.72
2022-10-31T20:20:37.585Z,104.55
2022-10-31T20:25:48.304Z,88.47
2022-10-31T20:30:52.141Z,74.13
2022-10-31T20:35:57.346Z,61.70
2022-10-31T20:41:02.547Z,69.57
2022-10-31T20:46:08.788Z,78.53
2022-10-31T20:56:26.333Z,77.35
2022-10-31T21:01:31.639Z,74.05
2022-10-31T21:06:37.126Z,69.07
2022-10-31T21:11:41.119Z,63.93
2022-10-31T21:16:45.001Z,66.50
2022-10-31T21:21:50.205Z,61.50
2022-10-31T21:26:54.008Z,46.13
2022-10-31T21:31:57.837Z,61.97
2022-10-31T21:37:03.004Z,58.55
2022-10-31T21:42:07.166Z,57.47
2022-10-31T21:47:10.985Z,45.13
2022-10-31T21:52:16.274Z,45.75
2022-10-31T22:02:28.926Z,55.08
2022-10-31T22:07:34.370Z,52.08
2022-10-31T22:12:39.109Z,40.97
2022-10-31T22:17:42.866Z,57.10
2022-10-31T22:22:49.392Z,43.17
2022-10-31T22:27:53.744Z,46.15
2022-10-31T22:32:57.567Z,37.70
2022-10-31T22:38:02.774Z,38.58
2022-10-31T22:43:06.558Z,39.40
2022-10-31T22:48:10.351Z,37.17
2022-10-31T22:53:15.965Z,35.90
2022-10-31T22:58:19.756Z,35.38
2022-10-31T23:03:23.721Z,42.95
2022-10-31T23:08:30.084Z,42.95
2022-10-31T23:13:51.176Z,39.85
2022-10-31T23:18:54.954Z,41.83
2022-10-31T23:24:00.755Z,38.20
2022-10-31T23:29:04.547Z,40.20
2022-10-31T23:34:08.377Z,35.90
2022-10-31T23:39:13.574Z,34.88
2022-10-31T23:44:17.412Z,37.75
2022-10-31T23:49:21.172Z,38.85
2022-10-31T23:54:27.003Z,36.65
2022-10-31T23:59:30.812Z,37.45
